AEE153C EGKK-EHAM
Flight info
| Callsign | AEE153C |
|---|---|
| Flight time | 0h 26m |
| Altitude | 35000 |
| Route | FRANE1Z FRANE M604 DAGGA P44 CLN L620 REDFA REDFA1A |
| Aircraft | A20N/M-SDE2E3FGHIJ1RWXY/LB1 |
Departure
| Time | 2026-05-06 19:35 |
|---|---|
| Airport | London Gatwick Airport (EGKK) |
Arrival
| Time | 2026-05-06 20:02 |
|---|---|
| Airport | Amsterdam Airport Schiphol (EHAM) |
| Time | Latitude | Longitude | Altitude | Speed | Heading |
|---|---|---|---|---|---|
| 2026-05-06 19:03 | 51.15470 | -0.17091 | 214 ft | 0 kts | 348° |
| 2026-05-06 19:24 | 51.15468 | -0.17090 | 204 ft | 2 kts | 347° |
| 2026-05-06 19:24 | 51.15453 | -0.17081 | 213 ft | 2 kts | 331° |
| 2026-05-06 19:25 | 51.15440 | -0.17066 | 211 ft | 2 kts | 310° |
| 2026-05-06 19:25 | 51.15431 | -0.17044 | 213 ft | 2 kts | 289° |
| 2026-05-06 19:25 | 51.15427 | -0.17018 | 206 ft | 2 kts | 273° |
| 2026-05-06 19:25 | 51.15427 | -0.16992 | 206 ft | 2 kts | 262° |
| 2026-05-06 19:26 | 51.15429 | -0.16976 | 204 ft | 1 kts | 256° |
| 2026-05-06 19:27 | 51.15427 | -0.16991 | 204 ft | 3 kts | 256° |
| 2026-05-06 19:27 | 51.15419 | -0.17045 | 208 ft | 7 kts | 256° |
| 2026-05-06 19:28 | 51.15402 | -0.17137 | 213 ft | 10 kts | 249° |
| 2026-05-06 19:28 | 51.15374 | -0.17262 | 215 ft | 14 kts | 253° |
| 2026-05-06 19:28 | 51.15316 | -0.17385 | 208 ft | 14 kts | 229° |
| 2026-05-06 19:28 | 51.15288 | -0.17548 | 212 ft | 17 kts | 256° |
| 2026-05-06 19:29 | 51.15262 | -0.17744 | 210 ft | 19 kts | 259° |
| 2026-05-06 19:29 | 51.15231 | -0.17966 | 209 ft | 22 kts | 257° |
| 2026-05-06 19:29 | 51.15197 | -0.18214 | 209 ft | 24 kts | 257° |
| 2026-05-06 19:29 | 51.15166 | -0.18486 | 207 ft | 26 kts | 259° |
| 2026-05-06 19:30 | 51.15125 | -0.18776 | 213 ft | 28 kts | 257° |
| 2026-05-06 19:30 | 51.15084 | -0.19081 | 212 ft | 29 kts | 258° |
| 2026-05-06 19:30 | 51.15039 | -0.19405 | 212 ft | 30 kts | 257° |
| 2026-05-06 19:30 | 51.14993 | -0.19732 | 205 ft | 31 kts | 257° |
| 2026-05-06 19:31 | 51.14946 | -0.20073 | 208 ft | 32 kts | 257° |
| 2026-05-06 19:31 | 51.14904 | -0.20372 | 208 ft | 24 kts | 257° |
| 2026-05-06 19:31 | 51.14841 | -0.20849 | 211 ft | 8 kts | 257° |
| 2026-05-06 19:32 | 51.14826 | -0.20949 | 215 ft | 11 kts | 257° |
| 2026-05-06 19:32 | 51.14806 | -0.21084 | 207 ft | 14 kts | 256° |
| 2026-05-06 19:32 | 51.14770 | -0.21247 | 205 ft | 17 kts | 247° |
| 2026-05-06 19:32 | 51.14685 | -0.21350 | 205 ft | 17 kts | 171° |
| 2026-05-06 19:33 | 51.14639 | -0.21336 | 210 ft | 0 kts | 168° |
| 2026-05-06 19:33 | 51.14622 | -0.21330 | 205 ft | 4 kts | 168° |
| 2026-05-06 19:33 | 51.14583 | -0.21317 | 215 ft | 7 kts | 166° |
| 2026-05-06 19:34 | 51.14537 | -0.21262 | 209 ft | 10 kts | 133° |
| 2026-05-06 19:34 | 51.14521 | -0.21170 | 208 ft | 9 kts | 78° |
| 2026-05-06 19:34 | 51.14531 | -0.21097 | 209 ft | 0 kts | 78° |
| 2026-05-06 19:34 | 51.14532 | -0.21088 | 206 ft | 3 kts | 78° |
| 2026-05-06 19:35 | 51.14555 | -0.20919 | 212 ft | 49 kts | 77° |
| 2026-05-06 19:35 | 51.14693 | -0.19928 | 216 ft | 129 kts | 77° |
| 2026-05-06 19:35 | 51.14927 | -0.18301 | 519 ft | 164 kts | 77° |
| 2026-05-06 19:35 | 51.15167 | -0.16533 | 1540 ft | 163 kts | 76° |
| 2026-05-06 19:36 | 51.15406 | -0.14722 | 2414 ft | 175 kts | 75° |
| 2026-05-06 19:36 | 51.15676 | -0.12735 | 3065 ft | 192 kts | 75° |
| 2026-05-06 19:36 | 51.15981 | -0.10522 | 3521 ft | 217 kts | 76° |
| 2026-05-06 19:36 | 51.16321 | -0.08054 | 4097 ft | 239 kts | 75° |
| 2026-05-06 19:37 | 51.16694 | -0.05346 | 4687 ft | 261 kts | 77° |
| 2026-05-06 19:37 | 51.16903 | -0.02421 | 4941 ft | 269 kts | 88° |
| 2026-05-06 19:37 | 51.16840 | 0.00566 | 4988 ft | 272 kts | 91° |
| 2026-05-06 19:37 | 51.16793 | 0.02567 | 4988 ft | 273 kts | 91° |
| 2026-05-06 19:38 | 51.16711 | 0.06565 | 5339 ft | 269 kts | 91° |
| 2026-05-06 19:38 | 51.16654 | 0.09567 | 5858 ft | 273 kts | 91° |
| 2026-05-06 19:38 | 51.16599 | 0.12592 | 6383 ft | 274 kts | 91° |
| 2026-05-06 19:38 | 51.16542 | 0.15633 | 6875 ft | 276 kts | 91° |
| 2026-05-06 19:39 | 51.16518 | 0.18710 | 7377 ft | 279 kts | 89° |
| 2026-05-06 19:39 | 51.16533 | 0.21828 | 7895 ft | 283 kts | 88° |
| 2026-05-06 19:39 | 51.16554 | 0.24993 | 8402 ft | 288 kts | 88° |
| 2026-05-06 19:39 | 51.16571 | 0.28174 | 8926 ft | 289 kts | 89° |
| 2026-05-06 19:40 | 51.16581 | 0.31385 | 9464 ft | 293 kts | 89° |
| 2026-05-06 19:40 | 51.16587 | 0.34642 | 9990 ft | 296 kts | 89° |
| 2026-05-06 19:40 | 51.16593 | 0.37926 | 10477 ft | 299 kts | 87° |
| 2026-05-06 19:40 | 51.17012 | 0.41231 | 10982 ft | 313 kts | 64° |
| 2026-05-06 19:41 | 51.18273 | 0.44104 | 11496 ft | 324 kts | 41° |
| 2026-05-06 19:41 | 51.20198 | 0.46049 | 12019 ft | 335 kts | 20° |
| 2026-05-06 19:41 | 51.22446 | 0.47188 | 12543 ft | 342 kts | 13° |
| 2026-05-06 19:41 | 51.24770 | 0.48132 | 13198 ft | 347 kts | 13° |
| 2026-05-06 19:42 | 51.27108 | 0.49150 | 13981 ft | 350 kts | 14° |
| 2026-05-06 19:42 | 51.29449 | 0.50287 | 14718 ft | 354 kts | 16° |
| 2026-05-06 19:42 | 51.31768 | 0.51497 | 15457 ft | 357 kts | 17° |
| 2026-05-06 19:42 | 51.34128 | 0.52774 | 16263 ft | 359 kts | 17° |
| 2026-05-06 19:43 | 51.36497 | 0.54074 | 17047 ft | 361 kts | 17° |
| 2026-05-06 19:43 | 51.38873 | 0.55384 | 17862 ft | 362 kts | 17° |
| 2026-05-06 19:43 | 51.41256 | 0.56698 | 18635 ft | 362 kts | 17° |
| 2026-05-06 19:43 | 51.43639 | 0.58012 | 19339 ft | 363 kts | 17° |
| 2026-05-06 19:44 | 51.46030 | 0.59330 | 20032 ft | 364 kts | 17° |
| 2026-05-06 19:44 | 51.48425 | 0.60651 | 20739 ft | 364 kts | 17° |
| 2026-05-06 19:44 | 51.50818 | 0.61972 | 21469 ft | 363 kts | 17° |
| 2026-05-06 19:44 | 51.53215 | 0.63295 | 22065 ft | 368 kts | 17° |
| 2026-05-06 19:45 | 51.55687 | 0.64659 | 22234 ft | 384 kts | 17° |
| 2026-05-06 19:45 | 51.58262 | 0.66080 | 22401 ft | 398 kts | 17° |
| 2026-05-06 19:45 | 51.60912 | 0.67547 | 22780 ft | 406 kts | 17° |
| 2026-05-06 19:45 | 51.63593 | 0.69037 | 23363 ft | 409 kts | 17° |
| 2026-05-06 19:46 | 51.66294 | 0.70539 | 23848 ft | 413 kts | 17° |
| 2026-05-06 19:46 | 51.70475 | 0.72866 | 24576 ft | 417 kts | 17° |
| 2026-05-06 19:46 | 51.73227 | 0.74400 | 25032 ft | 420 kts | 17° |
| 2026-05-06 19:46 | 51.75991 | 0.75972 | 25471 ft | 423 kts | 20° |
| 2026-05-06 19:47 | 51.78577 | 0.78294 | 25891 ft | 430 kts | 35° |
| 2026-05-06 19:47 | 51.82007 | 0.84543 | 26593 ft | 439 kts | 60° |
| 2026-05-06 19:47 | 51.84199 | 1.04065 | 28188 ft | 450 kts | 85° |
| 2026-05-06 19:47 | 51.86735 | 1.23999 | 29606 ft | 459 kts | 71° |
| 2026-05-06 19:48 | 51.90780 | 1.43841 | 30843 ft | 468 kts | 71° |
| 2026-05-06 19:48 | 51.94826 | 1.63928 | 32291 ft | 468 kts | 71° |
| 2026-05-06 19:48 | 51.96631 | 1.72958 | 32973 ft | 467 kts | 72° |
| 2026-05-06 19:48 | 51.97629 | 1.77963 | 33337 ft | 466 kts | 72° |
| 2026-05-06 19:49 | 51.98622 | 1.82960 | 33690 ft | 465 kts | 72° |
| 2026-05-06 19:49 | 51.99611 | 1.87954 | 34031 ft | 465 kts | 72° |
| 2026-05-06 19:49 | 52.00597 | 1.92938 | 34304 ft | 465 kts | 72° |
| 2026-05-06 19:49 | 52.01582 | 1.97934 | 34538 ft | 465 kts | 72° |
| 2026-05-06 19:50 | 52.02563 | 2.02925 | 34820 ft | 464 kts | 72° |
| 2026-05-06 19:50 | 52.03544 | 2.07923 | 34977 ft | 466 kts | 72° |
| 2026-05-06 19:50 | 52.05502 | 2.17947 | 34813 ft | 465 kts | 72° |
| 2026-05-06 19:51 | 52.06475 | 2.22945 | 34530 ft | 464 kts | 72° |
| 2026-05-06 19:51 | 52.07447 | 2.27951 | 33938 ft | 465 kts | 72° |
| 2026-05-06 19:51 | 52.08408 | 2.32916 | 33014 ft | 469 kts | 72° |
| 2026-05-06 19:51 | 52.11580 | 2.49035 | 30926 ft | 458 kts | 68° |
| 2026-05-06 19:52 | 52.14717 | 2.58992 | 29146 ft | 456 kts | 56° |
| 2026-05-06 19:52 | 52.20292 | 2.73207 | 27446 ft | 438 kts | 58° |
| 2026-05-06 19:52 | 52.26351 | 2.89998 | 25175 ft | 422 kts | 59° |
| 2026-05-06 19:52 | 52.35894 | 3.16825 | 21425 ft | 408 kts | 59° |
| 2026-05-06 19:53 | 52.43854 | 3.39453 | 18130 ft | 387 kts | 61° |
| 2026-05-06 19:53 | 52.46790 | 3.56090 | 15935 ft | 374 kts | 76° |
| 2026-05-06 19:53 | 52.49143 | 3.72481 | 13824 ft | 364 kts | 76° |
| 2026-05-06 19:53 | 52.51360 | 3.88202 | 12311 ft | 333 kts | 76° |
| 2026-05-06 19:54 | 52.51235 | 4.02098 | 11246 ft | 301 kts | 112° |
| 2026-05-06 19:54 | 52.48171 | 4.14649 | 9736 ft | 292 kts | 111° |
| 2026-05-06 19:54 | 52.45258 | 4.26525 | 8317 ft | 277 kts | 110° |
| 2026-05-06 19:54 | 52.44539 | 4.29448 | 7955 ft | 274 kts | 110° |
| 2026-05-06 19:55 | 52.43832 | 4.32325 | 7610 ft | 271 kts | 110° |
| 2026-05-06 19:55 | 52.42690 | 4.36231 | 7118 ft | 269 kts | 127° |
| 2026-05-06 19:55 | 52.32628 | 4.37877 | 5164 ft | 267 kts | 188° |
| 2026-05-06 19:55 | 52.24935 | 4.36688 | 4019 ft | 243 kts | 166° |
| 2026-05-06 19:56 | 52.23354 | 4.37897 | 3797 ft | 234 kts | 131° |
| 2026-05-06 19:56 | 52.22479 | 4.40047 | 3669 ft | 227 kts | 111° |
| 2026-05-06 19:56 | 52.21856 | 4.42407 | 3446 ft | 227 kts | 109° |
| 2026-05-06 19:56 | 52.21253 | 4.44809 | 2980 ft | 232 kts | 107° |
| 2026-05-06 19:57 | 52.20872 | 4.47348 | 2459 ft | 229 kts | 92° |
| 2026-05-06 19:57 | 52.20846 | 4.49860 | 2249 ft | 214 kts | 87° |
| 2026-05-06 19:57 | 52.20914 | 4.52197 | 2045 ft | 202 kts | 76° |
| 2026-05-06 19:57 | 52.21376 | 4.54245 | 1972 ft | 182 kts | 61° |
| 2026-05-06 19:58 | 52.21785 | 4.55438 | 2007 ft | 172 kts | 58° |
| 2026-05-06 19:58 | 52.22365 | 4.56976 | 1992 ft | 145 kts | 56° |
| 2026-05-06 19:58 | 52.22849 | 4.58224 | 1971 ft | 119 kts | 56° |
| 2026-05-06 19:58 | 52.23302 | 4.59385 | 1983 ft | 124 kts | 55° |
| 2026-05-06 19:59 | 52.23755 | 4.60548 | 1982 ft | 122 kts | 56° |
| 2026-05-06 19:59 | 52.24214 | 4.61722 | 1834 ft | 124 kts | 56° |
| 2026-05-06 19:59 | 52.24658 | 4.62865 | 1626 ft | 118 kts | 56° |
| 2026-05-06 19:59 | 52.25108 | 4.64018 | 1442 ft | 119 kts | 56° |
| 2026-05-06 20:00 | 52.25550 | 4.65151 | 1276 ft | 120 kts | 56° |
| 2026-05-06 20:00 | 52.25995 | 4.66295 | 1091 ft | 119 kts | 56° |
| 2026-05-06 20:00 | 52.26438 | 4.67433 | 930 ft | 119 kts | 55° |
| 2026-05-06 20:00 | 52.26888 | 4.68586 | 762 ft | 121 kts | 54° |
| 2026-05-06 20:01 | 52.27359 | 4.69699 | 598 ft | 123 kts | 52° |
| 2026-05-06 20:01 | 52.27825 | 4.70916 | 453 ft | 126 kts | 55° |
| 2026-05-06 20:01 | 52.28285 | 4.72119 | 251 ft | 126 kts | 54° |
| 2026-05-06 20:01 | 52.28755 | 4.73318 | 105 ft | 126 kts | 56° |
| 2026-05-06 20:02 | 52.29205 | 4.74510 | 29 ft | 119 kts | 56° |
| 2026-05-06 20:02 | 52.29533 | 4.75351 | 15 ft | 46 kts | 59° |
| 2026-05-06 20:02 | 52.29577 | 4.75467 | 15 ft | 0 kts | 58° |